sensor_id;sensor_type;location;lat;lon;timestamp;pressure;altitude;pressure_sealevel;temperature;humidity
72465;BME280;60471;52.150;4.508;2022-07-29T00:01:49;101588.13;;;19.27;54.17
72465;BME280;60471;52.150;4.508;2022-07-29T00:04:15;101580.66;;;19.07;54.71
72465;BME280;60471;52.150;4.508;2022-07-29T00:06:41;101586.00;;;19.20;54.50
72465;BME280;60471;52.150;4.508;2022-07-29T00:09:07;101582.50;;;19.06;54.93
72465;BME280;60471;52.150;4.508;2022-07-29T00:11:34;101587.00;;;19.06;55.01
72465;BME280;60471;52.150;4.508;2022-07-29T00:14:00;101573.47;;;19.20;54.51
72465;BME280;60471;52.150;4.508;2022-07-29T00:16:26;101581.19;;;19.25;53.99
72465;BME280;60471;52.150;4.508;2022-07-29T00:18:52;101567.28;;;19.07;54.96
72465;BME280;60471;52.150;4.508;2022-07-29T00:21:19;101567.44;;;18.93;55.08
72465;BME280;60471;52.150;4.508;2022-07-29T00:23:45;101570.00;;;18.94;55.23
72465;BME280;60471;52.150;4.508;2022-07-29T00:26:11;101563.91;;;18.92;55.25
72465;BME280;60471;52.150;4.508;2022-07-29T00:28:37;101561.31;;;19.03;55.11
72465;BME280;60471;52.150;4.508;2022-07-29T00:31:04;101568.72;;;19.00;55.34
72465;BME280;60471;52.150;4.508;2022-07-29T00:33:30;101557.06;;;19.01;55.41
72465;BME280;60471;52.150;4.508;2022-07-29T00:35:56;101560.03;;;18.96;55.42
72465;BME280;60471;52.150;4.508;2022-07-29T00:38:22;101561.56;;;19.00;55.25
72465;BME280;60471;52.150;4.508;2022-07-29T00:40:49;101563.25;;;19.01;55.41
72465;BME280;60471;52.150;4.508;2022-07-29T00:43:15;101566.44;;;19.06;55.11
72465;BME280;60471;52.150;4.508;2022-07-29T00:45:43;101567.75;;;19.01;55.41
72465;BME280;60471;52.150;4.508;2022-07-29T00:48:09;101566.28;;;18.84;55.76
72465;BME280;60471;52.150;4.508;2022-07-29T00:50:36;101558.69;;;18.78;56.07
72465;BME280;60471;52.150;4.508;2022-07-29T00:53:05;101552.00;;;18.96;55.79
72465;BME280;60471;52.150;4.508;2022-07-29T00:55:32;101559.28;;;19.07;55.51
72465;BME280;60471;52.150;4.508;2022-07-29T00:57:59;101553.19;;;19.05;55.29
72465;BME280;60471;52.150;4.508;2022-07-29T01:00:27;101549.78;;;18.77;56.38
72465;BME280;60471;52.150;4.508;2022-07-29T01:02:55;101557.19;;;18.74;56.66
72465;BME280;60471;52.150;4.508;2022-07-29T01:05:23;101546.16;;;18.91;56.20
72465;BME280;60471;52.150;4.508;2022-07-29T01:07:53;101551.06;;;18.85;56.03
72465;BME280;60471;52.150;4.508;2022-07-29T01:10:21;101555.72;;;18.70;56.42
72465;BME280;60471;52.150;4.508;2022-07-29T01:12:51;101553.75;;;18.85;55.84
72465;BME280;60471;52.150;4.508;2022-07-29T01:15:19;101553.66;;;18.73;55.99
72465;BME280;60471;52.150;4.508;2022-07-29T01:26:41;101537.38;;;18.76;56.21
72465;BME280;60471;52.150;4.508;2022-07-29T01:29:18;101531.41;;;18.73;56.13
72465;BME280;60471;52.150;4.508;2022-07-29T01:31:56;101529.34;;;18.64;56.79
72465;BME280;60471;52.150;4.508;2022-07-29T01:34:45;101529.69;;;18.59;56.71
72465;BME280;60471;52.150;4.508;2022-07-29T01:37:26;101539.19;;;18.63;56.79
72465;BME280;60471;52.150;4.508;2022-07-29T01:40:01;101537.50;;;18.49;57.31
72465;BME280;60471;52.150;4.508;2022-07-29T01:42:35;101519.88;;;18.47;57.11
72465;BME280;60471;52.150;4.508;2022-07-29T01:45:12;101531.31;;;18.49;57.38
72465;BME280;60471;52.150;4.508;2022-07-29T01:50:23;101520.47;;;18.63;56.73
72465;BME280;60471;52.150;4.508;2022-07-29T01:52:59;101523.06;;;18.65;56.82
72465;BME280;60471;52.150;4.508;2022-07-29T01:55:31;101530.56;;;18.72;56.28
72465;BME280;60471;52.150;4.508;2022-07-29T01:58:00;101519.22;;;18.56;57.01
72465;BME280;60471;52.150;4.508;2022-07-29T02:00:31;101512.56;;;18.62;56.56
72465;BME280;60471;52.150;4.508;2022-07-29T02:03:02;101504.56;;;18.62;56.66
72465;BME280;60471;52.150;4.508;2022-07-29T02:05:32;101508.56;;;18.69;56.24
72465;BME280;60471;52.150;4.508;2022-07-29T02:08:02;101510.31;;;18.55;56.63
72465;BME280;60471;52.150;4.508;2022-07-29T02:10:32;101507.78;;;18.41;57.29
72465;BME280;60471;52.150;4.508;2022-07-29T02:13:02;101511.41;;;18.40;57.50
72465;BME280;60471;52.150;4.508;2022-07-29T02:15:32;101508.97;;;18.50;57.18
72465;BME280;60471;52.150;4.508;2022-07-29T02:18:02;101503.50;;;18.64;56.33
72465;BME280;60471;52.150;4.508;2022-07-29T02:20:33;101505.66;;;18.72;56.24
72465;BME280;60471;52.150;4.508;2022-07-29T02:23:01;101499.75;;;18.67;56.19
72465;BME280;60471;52.150;4.508;2022-07-29T02:25:29;101505.31;;;18.76;56.09
72465;BME280;60471;52.150;4.508;2022-07-29T02:27:57;101500.19;;;18.48;57.13
72465;BME280;60471;52.150;4.508;2022-07-29T02:30:27;101504.38;;;18.39;57.31
72465;BME280;60471;52.150;4.508;2022-07-29T02:32:55;101507.88;;;18.52;56.85
72465;BME280;60471;52.150;4.508;2022-07-29T02:35:23;101501.38;;;18.69;56.49
72465;BME280;60471;52.150;4.508;2022-07-29T02:37:51;101505.41;;;18.75;56.14
72465;BME280;60471;52.150;4.508;2022-07-29T02:40:38;101496.19;;;18.92;55.77
72465;BME280;60471;52.150;4.508;2022-07-29T02:43:08;101505.84;;;18.81;55.96
72465;BME280;60471;52.150;4.508;2022-07-29T02:45:36;101505.22;;;18.78;55.68
72465;BME280;60471;52.150;4.508;2022-07-29T02:48:10;101501.56;;;18.66;56.34
72465;BME280;60471;52.150;4.508;2022-07-29T02:50:48;101491.84;;;18.78;56.11
72465;BME280;60471;52.150;4.508;2022-07-29T02:53:23;101496.88;;;18.70;56.50
72465;BME280;60471;52.150;4.508;2022-07-29T02:58:38;101491.41;;;18.59;57.22
72465;BME280;60471;52.150;4.508;2022-07-29T03:01:25;101495.03;;;18.45;57.97
72465;BME280;60471;52.150;4.508;2022-07-29T03:04:00;101499.44;;;18.59;57.65
72465;BME280;60471;52.150;4.508;2022-07-29T03:06:30;101499.34;;;18.35;58.57
72465;BME280;60471;52.150;4.508;2022-07-29T03:08:59;101491.34;;;18.35;58.41
72465;BME280;60471;52.150;4.508;2022-07-29T03:11:26;101492.50;;;18.31;58.81
72465;BME280;60471;52.150;4.508;2022-07-29T03:13:53;101490.28;;;18.24;59.07
72465;BME280;60471;52.150;4.508;2022-07-29T03:16:21;101489.50;;;18.22;59.09
72465;BME280;60471;52.150;4.508;2022-07-29T03:18:50;101496.56;;;18.36;58.56
72465;BME280;60471;52.150;4.508;2022-07-29T03:21:17;101491.44;;;18.46;58.14
72465;BME280;60471;52.150;4.508;2022-07-29T03:23:43;101490.34;;;18.48;57.82
72465;BME280;60471;52.150;4.508;2022-07-29T03:26:12;101488.97;;;18.43;57.75
72465;BME280;60471;52.150;4.508;2022-07-29T03:28:38;101482.88;;;18.28;58.10
72465;BME280;60471;52.150;4.508;2022-07-29T03:31:04;101485.56;;;18.15;58.69
72465;BME280;60471;52.150;4.508;2022-07-29T03:33:31;101482.25;;;18.37;57.88
72465;BME280;60471;52.150;4.508;2022-07-29T03:35:57;101472.81;;;18.57;56.99
72465;BME280;60471;52.150;4.508;2022-07-29T03:38:26;101475.50;;;18.57;56.76
72465;BME280;60471;52.150;4.508;2022-07-29T03:41:03;101475.50;;;18.57;57.16
72465;BME280;60471;52.150;4.508;2022-07-29T03:43:36;101472.81;;;18.44;57.65
72465;BME280;60471;52.150;4.508;2022-07-29T03:46:07;101479.47;;;18.26;58.15
72465;BME280;60471;52.150;4.508;2022-07-29T03:48:39;101482.88;;;18.15;59.05
72465;BME280;60471;52.150;4.508;2022-07-29T03:51:11;101486.50;;;18.02;59.21
72465;BME280;60471;52.150;4.508;2022-07-29T03:53:38;101475.94;;;18.13;59.22
72465;BME280;60471;52.150;4.508;2022-07-29T03:56:06;101481.91;;;18.42;57.79
72465;BME280;60471;52.150;4.508;2022-07-29T03:58:34;101480.84;;;18.19;58.32
72465;BME280;60471;52.150;4.508;2022-07-29T04:01:01;101487.38;;;18.15;58.69
72465;BME280;60471;52.150;4.508;2022-07-29T04:03:28;101493.25;;;18.20;58.64
72465;BME280;60471;52.150;4.508;2022-07-29T04:06:03;101485.34;;;18.31;57.96
72465;BME280;60471;52.150;4.508;2022-07-29T04:08:32;101487.38;;;18.28;57.82
72465;BME280;60471;52.150;4.508;2022-07-29T04:11:00;101491.22;;;18.23;57.93
72465;BME280;60471;52.150;4.508;2022-07-29T04:13:27;101489.63;;;18.46;57.32
72465;BME280;60471;52.150;4.508;2022-07-29T04:15:54;101488.53;;;18.49;57.21
72465;BME280;60471;52.150;4.508;2022-07-29T04:18:20;101493.53;;;18.53;57.24
72465;BME280;60471;52.150;4.508;2022-07-29T04:20:47;101488.19;;;18.53;57.61
72465;BME280;60471;52.150;4.508;2022-07-29T04:23:13;101480.53;;;18.36;58.07
72465;BME280;60471;52.150;4.508;2022-07-29T04:25:40;101488.84;;;18.44;58.15
72465;BME280;60471;52.150;4.508;2022-07-29T04:28:07;101484.72;;;18.15;59.16
72465;BME280;60471;52.150;4.508;2022-07-29T04:30:35;101485.34;;;18.18;59.31
72465;BME280;60471;52.150;4.508;2022-07-29T04:33:05;101482.78;;;18.17;59.52
72465;BME280;60471;52.150;4.508;2022-07-29T04:35:36;101482.16;;;18.26;59.34
72465;BME280;60471;52.150;4.508;2022-07-29T04:38:05;101480.41;;;18.12;59.85
72465;BME280;60471;52.150;4.508;2022-07-29T04:40:32;101483.19;;;18.11;59.89
72465;BME280;60471;52.150;4.508;2022-07-29T04:43:00;101477.66;;;18.27;59.64
72465;BME280;60471;52.150;4.508;2022-07-29T04:45:27;101481.91;;;18.29;59.23
72465;BME280;60471;52.150;4.508;2022-07-29T04:47:54;101482.97;;;18.39;59.15
72465;BME280;60471;52.150;4.508;2022-07-29T04:50:23;101483.94;;;18.38;59.05
72465;BME280;60471;52.150;4.508;2022-07-29T04:52:49;101477.53;;;18.41;59.18
72465;BME280;60471;52.150;4.508;2022-07-29T04:55:15;101478.72;;;18.24;59.71
72465;BME280;60471;52.150;4.508;2022-07-29T04:57:41;101482.88;;;18.28;59.68
72465;BME280;60471;52.150;4.508;2022-07-29T05:00:08;101480.53;;;18.36;59.37
72465;BME280;60471;52.150;4.508;2022-07-29T05:02:35;101480.09;;;18.30;59.83
72465;BME280;60471;52.150;4.508;2022-07-29T05:05:01;101481.81;;;18.18;60.08
72465;BME280;60471;52.150;4.508;2022-07-29T05:07:27;101477.97;;;18.09;60.48
72465;BME280;60471;52.150;4.508;2022-07-29T05:09:53;101481.94;;;18.16;60.34
72465;BME280;60471;52.150;4.508;2022-07-29T05:12:23;101482.16;;;18.26;59.95
72465;BME280;60471;52.150;4.508;2022-07-29T05:14:50;101481.28;;;18.25;60.22
72465;BME280;60471;52.150;4.508;2022-07-29T05:17:16;101489.50;;;18.48;59.67
72465;BME280;60471;52.150;4.508;2022-07-29T05:19:43;101482.56;;;18.45;59.86
72465;BME280;60471;52.150;4.508;2022-07-29T05:22:09;101484.38;;;18.58;59.60
72465;BME280;60471;52.150;4.508;2022-07-29T05:24:35;101485.53;;;18.53;59.70
72465;BME280;60471;52.150;4.508;2022-07-29T05:27:02;101491.31;;;18.60;59.45
72465;BME280;60471;52.150;4.508;2022-07-29T05:29:28;101498.78;;;18.55;59.67
72465;BME280;60471;52.150;4.508;2022-07-29T05:31:54;101506.28;;;18.50;59.67
72465;BME280;60471;52.150;4.508;2022-07-29T05:34:20;101507.47;;;18.71;58.89
72465;BME280;60471;52.150;4.508;2022-07-29T05:36:46;101508.28;;;18.85;59.01
72465;BME280;60471;52.150;4.508;2022-07-29T05:39:13;101489.03;;;18.92;58.79
72465;BME280;60471;52.150;4.508;2022-07-29T05:41:39;101487.81;;;18.96;58.33
72465;BME280;60471;52.150;4.508;2022-07-29T05:44:05;101501.31;;;18.95;58.58
72465;BME280;60471;52.150;4.508;2022-07-29T05:46:32;101500.78;;;19.26;57.80
72465;BME280;60471;52.150;4.508;2022-07-29T05:48:58;101504.31;;;19.27;57.72
72465;BME280;60471;52.150;4.508;2022-07-29T05:51:24;101499.63;;;19.41;57.15
72465;BME280;60471;52.150;4.508;2022-07-29T05:53:50;101500.41;;;19.44;57.10
72465;BME280;60471;52.150;4.508;2022-07-29T05:56:16;101501.50;;;19.52;56.49
72465;BME280;60471;52.150;4.508;2022-07-29T05:58:43;101498.16;;;19.37;57.00
72465;BME280;60471;52.150;4.508;2022-07-29T06:01:09;101496.75;;;19.45;56.51
72465;BME280;60471;52.150;4.508;2022-07-29T06:03:35;101492.63;;;19.52;56.44
72465;BME280;60471;52.150;4.508;2022-07-29T06:06:03;101499.19;;;19.48;56.79
72465;BME280;60471;52.150;4.508;2022-07-29T06:08:31;101494.66;;;19.61;56.10
72465;BME280;60471;52.150;4.508;2022-07-29T06:11:00;101498.91;;;19.63;56.28
72465;BME280;60471;52.150;4.508;2022-07-29T06:13:27;101495.50;;;19.61;56.35
72465;BME280;60471;52.150;4.508;2022-07-29T06:15:53;101500.16;;;19.47;57.28
72465;BME280;60471;52.150;4.508;2022-07-29T06:18:19;101503.56;;;19.49;57.31
72465;BME280;60471;52.150;4.508;2022-07-29T06:20:46;101499.44;;;19.68;56.66
72465;BME280;60471;52.150;4.508;2022-07-29T06:23:12;101508.84;;;19.85;55.95
72465;BME280;60471;52.150;4.508;2022-07-29T06:25:40;101503.09;;;19.67;57.03
72465;BME280;60471;52.150;4.508;2022-07-29T06:28:06;101497.38;;;19.72;56.71
72465;BME280;60471;52.150;4.508;2022-07-29T06:30:32;101500.97;;;19.95;55.36
72465;BME280;60471;52.150;4.508;2022-07-29T06:32:59;101502.97;;;19.69;55.96
72465;BME280;60471;52.150;4.508;2022-07-29T06:35:26;101513.59;;;19.82;55.78
72465;BME280;60471;52.150;4.508;2022-07-29T06:37:52;101511.06;;;19.91;55.46
72465;BME280;60471;52.150;4.508;2022-07-29T06:40:18;101517.66;;;19.87;55.39
72465;BME280;60471;52.150;4.508;2022-07-29T06:43:03;101514.25;;;19.96;55.34
72465;BME280;60471;52.150;4.508;2022-07-29T06:45:30;101516.31;;;19.93;55.43
72465;BME280;60471;52.150;4.508;2022-07-29T06:48:00;101515.00;;;19.98;55.33
72465;BME280;60471;52.150;4.508;2022-07-29T06:50:26;101512.97;;;20.13;54.77
72465;BME280;60471;52.150;4.508;2022-07-29T06:52:52;101525.97;;;20.07;54.94
72465;BME280;60471;52.150;4.508;2022-07-29T06:55:18;101525.03;;;20.19;54.71
72465;BME280;60471;52.150;4.508;2022-07-29T06:57:47;101530.41;;;20.19;54.01
72465;BME280;60471;52.150;4.508;2022-07-29T07:00:13;101526.84;;;20.30;54.38
72465;BME280;60471;52.150;4.508;2022-07-29T07:02:40;101533.41;;;20.14;54.44
72465;BME280;60471;52.150;4.508;2022-07-29T07:05:06;101532.09;;;20.20;54.56
72465;BME280;60471;52.150;4.508;2022-07-29T07:07:32;101524.31;;;20.39;53.66
72465;BME280;60471;52.150;4.508;2022-07-29T07:09:59;101527.63;;;20.32;53.39
72465;BME280;60471;52.150;4.508;2022-07-29T07:12:25;101528.94;;;20.26;53.70
72465;BME280;60471;52.150;4.508;2022-07-29T07:14:51;101528.22;;;20.24;53.67
72465;BME280;60471;52.150;4.508;2022-07-29T07:17:17;101528.31;;;20.11;54.20
72465;BME280;60471;52.150;4.508;2022-07-29T07:19:43;101536.50;;;20.21;54.32
72465;BME280;60471;52.150;4.508;2022-07-29T07:22:10;101536.06;;;20.03;54.94
72465;BME280;60471;52.150;4.508;2022-07-29T07:24:37;101541.19;;;20.06;55.03
72465;BME280;60471;52.150;4.508;2022-07-29T07:27:03;101539.91;;;20.34;54.35
72465;BME280;60471;52.150;4.508;2022-07-29T07:29:29;101540.31;;;20.41;54.07
72465;BME280;60471;52.150;4.508;2022-07-29T07:31:57;101543.56;;;20.33;54.30
72465;BME280;60471;52.150;4.508;2022-07-29T07:34:23;101537.81;;;20.26;54.96
72465;BME280;60471;52.150;4.508;2022-07-29T07:36:49;101547.59;;;20.39;54.60
72465;BME280;60471;52.150;4.508;2022-07-29T07:39:15;101541.88;;;20.32;54.90
72465;BME280;60471;52.150;4.508;2022-07-29T07:41:42;101536.50;;;20.21;55.56
72465;BME280;60471;52.150;4.508;2022-07-29T07:44:08;101539.53;;;20.27;55.26
72465;BME280;60471;52.150;4.508;2022-07-29T07:46:34;101535.84;;;20.17;55.47
72465;BME280;60471;52.150;4.508;2022-07-29T07:49:00;101540.03;;;20.21;56.43
72465;BME280;60471;52.150;4.508;2022-07-29T07:51:26;101540.03;;;20.33;56.33
72465;BME280;60471;52.150;4.508;2022-07-29T07:53:53;101541.16;;;20.41;56.23
72465;BME280;60471;52.150;4.508;2022-07-29T07:56:19;101538.53;;;20.52;56.35
72465;BME280;60471;52.150;4.508;2022-07-29T07:58:45;101539.72;;;20.60;55.94
72465;BME280;60471;52.150;4.508;2022-07-29T08:01:11;101537.44;;;20.77;55.80
72465;BME280;60471;52.150;4.508;2022-07-29T08:03:38;101533.38;;;20.61;56.53
72465;BME280;60471;52.150;4.508;2022-07-29T08:06:04;101540.00;;;20.68;56.74
72465;BME280;60471;52.150;4.508;2022-07-29T08:08:31;101535.59;;;21.00;55.65
72465;BME280;60471;52.150;4.508;2022-07-29T08:10:57;101539.13;;;21.01;55.29
72465;BME280;60471;52.150;4.508;2022-07-29T08:13:26;101540.34;;;20.97;55.84
72465;BME280;60471;52.150;4.508;2022-07-29T08:15:56;101545.84;;;20.95;56.26
72465;BME280;60471;52.150;4.508;2022-07-29T08:18:38;101551.06;;;21.19;55.90
72465;BME280;60471;52.150;4.508;2022-07-29T08:21:06;101541.19;;;21.31;54.86
72465;BME280;60471;52.150;4.508;2022-07-29T08:23:32;101536.91;;;21.39;54.89
72465;BME280;60471;52.150;4.508;2022-07-29T08:26:08;101531.22;;;21.54;54.08
72465;BME280;60471;52.150;4.508;2022-07-29T08:28:37;101532.06;;;21.54;54.26
72465;BME280;60471;52.150;4.508;2022-07-29T08:31:05;101535.56;;;21.66;53.97
72465;BME280;60471;52.150;4.508;2022-07-29T08:33:32;101540.19;;;21.75;53.96
72465;BME280;60471;52.150;4.508;2022-07-29T08:35:59;101533.41;;;21.81;53.83
72465;BME280;60471;52.150;4.508;2022-07-29T08:38:25;101533.13;;;21.95;53.57
72465;BME280;60471;52.150;4.508;2022-07-29T08:40:52;101540.41;;;22.04;52.83
72465;BME280;60471;52.150;4.508;2022-07-29T08:43:19;101546.31;;;21.66;54.10
72465;BME280;60471;52.150;4.508;2022-07-29T08:45:47;101539.16;;;21.55;55.10
72465;BME280;60471;52.150;4.508;2022-07-29T08:48:17;101532.78;;;21.88;53.17
72465;BME280;60471;52.150;4.508;2022-07-29T08:50:47;101542.72;;;22.09;51.59
72465;BME280;60471;52.150;4.508;2022-07-29T08:53:17;101542.88;;;22.07;51.89
72465;BME280;60471;52.150;4.508;2022-07-29T08:55:49;101543.44;;;22.11;51.26
72465;BME280;60471;52.150;4.508;2022-07-29T08:58:16;101545.63;;;21.85;52.23
72465;BME280;60471;52.150;4.508;2022-07-29T09:00:51;101546.22;;;21.88;52.58
72465;BME280;60471;52.150;4.508;2022-07-29T09:03:25;101550.19;;;22.05;52.03
72465;BME280;60471;52.150;4.508;2022-07-29T09:05:56;101551.72;;;22.19;52.16
72465;BME280;60471;52.150;4.508;2022-07-29T09:08:23;101552.56;;;22.40;51.09
72465;BME280;60471;52.150;4.508;2022-07-29T09:10:50;101544.41;;;22.51;50.73
72465;BME280;60471;52.150;4.508;2022-07-29T09:13:17;101531.81;;;22.52;50.86
72465;BME280;60471;52.150;4.508;2022-07-29T09:15:44;101543.06;;;22.36;51.17
72465;BME280;60471;52.150;4.508;2022-07-29T09:18:10;101537.63;;;22.26;51.59
72465;BME280;60471;52.150;4.508;2022-07-29T09:20:36;101540.47;;;22.35;51.92
72465;BME280;60471;52.150;4.508;2022-07-29T09:23:22;101534.16;;;22.15;51.46
72465;BME280;60471;52.150;4.508;2022-07-29T09:25:48;101533.16;;;22.16;51.53
72465;BME280;60471;52.150;4.508;2022-07-29T09:28:17;101538.91;;;22.11;51.62
72465;BME280;60471;52.150;4.508;2022-07-29T09:30:55;101535.25;;;22.12;51.85
72465;BME280;60471;52.150;4.508;2022-07-29T09:33:23;101537.50;;;22.07;51.37
72465;BME280;60471;52.150;4.508;2022-07-29T09:36:06;101534.63;;;21.88;52.20
72465;BME280;60471;52.150;4.508;2022-07-29T09:38:35;101535.03;;;22.04;52.32
72465;BME280;60471;52.150;4.508;2022-07-29T09:41:04;101538.53;;;22.16;51.50
72465;BME280;60471;52.150;4.508;2022-07-29T09:43:30;101546.34;;;22.19;50.65
72465;BME280;60471;52.150;4.508;2022-07-29T09:46:10;101536.97;;;22.02;51.75
72465;BME280;60471;52.150;4.508;2022-07-29T09:48:37;101543.47;;;21.99;51.77
72465;BME280;60471;52.150;4.508;2022-07-29T09:51:03;101536.81;;;22.36;51.51
72465;BME280;60471;52.150;4.508;2022-07-29T09:53:35;101530.81;;;22.53;49.75
72465;BME280;60471;52.150;4.508;2022-07-29T09:56:03;101531.91;;;22.41;50.20
72465;BME280;60471;52.150;4.508;2022-07-29T09:58:30;101532.59;;;22.43;50.53
72465;BME280;60471;52.150;4.508;2022-07-29T10:00:59;101535.38;;;22.32;50.34
72465;BME280;60471;52.150;4.508;2022-07-29T10:03:25;101532.81;;;22.30;51.16
72465;BME280;60471;52.150;4.508;2022-07-29T10:06:09;101526.53;;;22.41;50.33
72465;BME280;60471;52.150;4.508;2022-07-29T10:08:37;101541.94;;;22.39;51.12
72465;BME280;60471;52.150;4.508;2022-07-29T10:11:13;101536.72;;;22.77;49.42
72465;BME280;60471;52.150;4.508;2022-07-29T10:13:43;101528.56;;;22.48;49.26
72465;BME280;60471;52.150;4.508;2022-07-29T10:16:12;101537.59;;;22.47;48.93
72465;BME280;60471;52.150;4.508;2022-07-29T10:18:43;101530.13;;;22.51;49.49
72465;BME280;60471;52.150;4.508;2022-07-29T10:21:10;101530.25;;;22.80;49.67
72465;BME280;60471;52.150;4.508;2022-07-29T10:23:38;101533.91;;;22.79;50.46
72465;BME280;60471;52.150;4.508;2022-07-29T10:26:05;101539.16;;;23.01;49.40
72465;BME280;60471;52.150;4.508;2022-07-29T10:28:31;101537.41;;;23.00;48.91
72465;BME280;60471;52.150;4.508;2022-07-29T10:31:15;101531.34;;;23.08;49.21
72465;BME280;60471;52.150;4.508;2022-07-29T10:34:04;101523.59;;;23.24;48.30
72465;BME280;60471;52.150;4.508;2022-07-29T10:43:28;101523.97;;;23.60;46.14
72465;BME280;60471;52.150;4.508;2022-07-29T10:45:59;101522.38;;;23.48;46.46
72465;BME280;60471;52.150;4.508;2022-07-29T10:48:26;101517.63;;;23.21;46.77
72465;BME280;60471;52.150;4.508;2022-07-29T10:51:01;101520.53;;;23.48;46.84
72465;BME280;60471;52.150;4.508;2022-07-29T10:53:52;101515.00;;;23.50;47.48
72465;BME280;60471;52.150;4.508;2022-07-29T10:56:26;101516.72;;;23.89;47.42
72465;BME280;60471;52.150;4.508;2022-07-29T11:01:53;101515.56;;;24.11;46.20
72465;BME280;60471;52.150;4.508;2022-07-29T11:07:11;101515.44;;;24.03;48.49
72465;BME280;60471;52.150;4.508;2022-07-29T11:09:38;101523.59;;;24.40;46.68
72465;BME280;60471;52.150;4.508;2022-07-29T11:15:01;101505.72;;;24.39;46.16
72465;BME280;60471;52.150;4.508;2022-07-29T11:23:28;101514.56;;;24.69;45.54
72465;BME280;60471;52.150;4.508;2022-07-29T11:34:21;101504.78;;;25.23;43.04
72465;BME280;60471;52.150;4.508;2022-07-29T11:39:35;101501.75;;;25.61;41.91
72465;BME280;60471;52.150;4.508;2022-07-29T11:44:57;101504.97;;;25.75;41.98
72465;BME280;60471;52.150;4.508;2022-07-29T11:47:25;101508.53;;;25.75;41.72
72465;BME280;60471;52.150;4.508;2022-07-29T11:49:54;101507.94;;;26.07;40.57
72465;BME280;60471;52.150;4.508;2022-07-29T11:52:23;101509.72;;;25.98;39.47
72465;BME280;60471;52.150;4.508;2022-07-29T11:54:58;101502.78;;;26.22;38.81
72465;BME280;60471;52.150;4.508;2022-07-29T11:57:28;101497.88;;;26.43;39.54
72465;BME280;60471;52.150;4.508;2022-07-29T11:59:55;101508.22;;;26.48;38.56
72465;BME280;60471;52.150;4.508;2022-07-29T12:02:23;101507.75;;;26.52;38.56
72465;BME280;60471;52.150;4.508;2022-07-29T12:04:54;101510.03;;;26.73;37.74
72465;BME280;60471;52.150;4.508;2022-07-29T12:07:32;101510.94;;;26.82;37.10
72465;BME280;60471;52.150;4.508;2022-07-29T12:10:00;101512.97;;;26.88;38.64
72465;BME280;60471;52.150;4.508;2022-07-29T12:12:27;101502.78;;;27.16;37.99
72465;BME280;60471;52.150;4.508;2022-07-29T12:14:54;101502.94;;;27.23;37.49
72465;BME280;60471;52.150;4.508;2022-07-29T12:17:29;101508.09;;;27.50;35.96
72465;BME280;60471;52.150;4.508;2022-07-29T12:19:59;101510.38;;;27.12;36.88
72465;BME280;60471;52.150;4.508;2022-07-29T12:22:31;101513.28;;;27.19;37.33
72465;BME280;60471;52.150;4.508;2022-07-29T12:25:13;101519.75;;;26.84;37.87
72465;BME280;60471;52.150;4.508;2022-07-29T12:27:43;101519.19;;;26.72;37.61
72465;BME280;60471;52.150;4.508;2022-07-29T12:30:14;101511.50;;;26.08;39.00
72465;BME280;60471;52.150;4.508;2022-07-29T12:32:46;101517.19;;;26.05;39.58
72465;BME280;60471;52.150;4.508;2022-07-29T12:35:15;101518.53;;;25.83;41.01
72465;BME280;60471;52.150;4.508;2022-07-29T12:37:46;101513.88;;;26.11;40.22
72465;BME280;60471;52.150;4.508;2022-07-29T12:40:15;101524.72;;;26.37;39.61
72465;BME280;60471;52.150;4.508;2022-07-29T12:45:46;101518.44;;;26.36;40.43
72465;BME280;60471;52.150;4.508;2022-07-29T12:48:14;101523.41;;;26.23;40.32
72465;BME280;60471;52.150;4.508;2022-07-29T12:50:58;101520.69;;;25.97;40.20
72465;BME280;60471;52.150;4.508;2022-07-29T12:53:26;101519.50;;;26.17;40.71
72465;BME280;60471;52.150;4.508;2022-07-29T12:55:55;101516.31;;;26.22;40.61
72465;BME280;60471;52.150;4.508;2022-07-29T12:58:40;101523.13;;;26.52;40.31
72465;BME280;60471;52.150;4.508;2022-07-29T13:06:42;101504.66;;;27.32;39.25
72465;BME280;60471;52.150;4.508;2022-07-29T13:09:18;101506.66;;;27.13;37.69
72465;BME280;60471;52.150;4.508;2022-07-29T13:11:47;101510.13;;;27.56;38.55
72465;BME280;60471;52.150;4.508;2022-07-29T13:14:32;101512.00;;;27.64;37.55
72465;BME280;60471;52.150;4.508;2022-07-29T13:17:22;101515.09;;;27.69;37.01
72465;BME280;60471;52.150;4.508;2022-07-29T13:19:52;101507.25;;;27.50;37.76
72465;BME280;60471;52.150;4.508;2022-07-29T13:22:30;101517.97;;;27.84;38.79
72465;BME280;60471;52.150;4.508;2022-07-29T13:25:00;101515.09;;;27.93;37.84
72465;BME280;60471;52.150;4.508;2022-07-29T13:27:30;101513.19;;;27.61;37.32
72465;BME280;60471;52.150;4.508;2022-07-29T13:30:00;101517.63;;;27.87;36.43
72465;BME280;60471;52.150;4.508;2022-07-29T13:32:29;101515.06;;;28.18;36.81
72465;BME280;60471;52.150;4.508;2022-07-29T13:34:58;101508.78;;;28.25;36.64
72465;BME280;60471;52.150;4.508;2022-07-29T13:37:26;101510.16;;;28.05;36.64
72465;BME280;60471;52.150;4.508;2022-07-29T13:39:56;101515.72;;;28.20;37.00
72465;BME280;60471;52.150;4.508;2022-07-29T13:42:23;101512.41;;;28.73;35.50
72465;BME280;60471;52.150;4.508;2022-07-29T13:44:50;101513.97;;;28.59;35.52
72465;BME280;60471;52.150;4.508;2022-07-29T13:47:18;101513.53;;;28.23;35.19
72465;BME280;60471;52.150;4.508;2022-07-29T13:49:45;101505.75;;;28.28;36.23
72465;BME280;60471;52.150;4.508;2022-07-29T13:52:12;101515.94;;;28.35;35.81
72465;BME280;60471;52.150;4.508;2022-07-29T13:54:38;101511.16;;;28.92;35.50
72465;BME280;60471;52.150;4.508;2022-07-29T13:57:04;101515.50;;;28.62;34.34
72465;BME280;60471;52.150;4.508;2022-07-29T13:59:31;101511.84;;;28.30;34.21